sensor_id;sensor_type;location;lat;lon;timestamp;P1;durP1;ratioP1;P2;durP2;ratioP2
31786;SDS011;18356;52.380;9.820;2022-12-07T00:00:54;46.90;;;23.17;;
31786;SDS011;18356;52.380;9.820;2022-12-07T00:03:21;48.97;;;22.67;;
31786;SDS011;18356;52.380;9.820;2022-12-07T00:05:47;48.27;;;23.50;;
31786;SDS011;18356;52.380;9.820;2022-12-07T00:08:13;47.40;;;22.73;;
31786;SDS011;18356;52.380;9.820;2022-12-07T00:10:39;49.07;;;23.17;;
31786;SDS011;18356;52.380;9.820;2022-12-07T00:13:05;46.33;;;22.70;;
31786;SDS011;18356;52.380;9.820;2022-12-07T00:15:33;49.37;;;22.83;;
31786;SDS011;18356;52.380;9.820;2022-12-07T00:17:59;52.37;;;23.67;;
31786;SDS011;18356;52.380;9.820;2022-12-07T00:20:25;48.87;;;22.30;;
31786;SDS011;18356;52.380;9.820;2022-12-07T00:22:51;45.33;;;21.73;;
31786;SDS011;18356;52.380;9.820;2022-12-07T00:25:17;55.57;;;23.90;;
31786;SDS011;18356;52.380;9.820;2022-12-07T00:27:43;48.50;;;23.13;;
31786;SDS011;18356;52.380;9.820;2022-12-07T00:30:09;52.70;;;24.07;;
31786;SDS011;18356;52.380;9.820;2022-12-07T00:32:35;48.40;;;23.17;;
31786;SDS011;18356;52.380;9.820;2022-12-07T00:35:01;49.93;;;23.07;;
31786;SDS011;18356;52.380;9.820;2022-12-07T00:37:27;46.07;;;22.07;;
31786;SDS011;18356;52.380;9.820;2022-12-07T00:39:53;45.73;;;22.43;;
31786;SDS011;18356;52.380;9.820;2022-12-07T00:42:19;47.67;;;22.40;;
31786;SDS011;18356;52.380;9.820;2022-12-07T00:44:45;56.27;;;23.10;;
31786;SDS011;18356;52.380;9.820;2022-12-07T00:47:11;52.03;;;23.20;;
31786;SDS011;18356;52.380;9.820;2022-12-07T00:49:37;55.53;;;23.60;;
31786;SDS011;18356;52.380;9.820;2022-12-07T00:52:03;52.30;;;23.30;;
31786;SDS011;18356;52.380;9.820;2022-12-07T00:54:29;52.20;;;22.57;;
31786;SDS011;18356;52.380;9.820;2022-12-07T00:56:55;49.73;;;23.20;;
31786;SDS011;18356;52.380;9.820;2022-12-07T00:59:21;48.50;;;23.27;;
31786;SDS011;18356;52.380;9.820;2022-12-07T01:01:47;48.80;;;23.20;;
31786;SDS011;18356;52.380;9.820;2022-12-07T01:04:13;47.57;;;22.77;;
31786;SDS011;18356;52.380;9.820;2022-12-07T01:06:39;46.23;;;21.63;;
31786;SDS011;18356;52.380;9.820;2022-12-07T01:09:06;42.37;;;21.47;;
31786;SDS011;18356;52.380;9.820;2022-12-07T01:11:32;44.50;;;21.33;;
31786;SDS011;18356;52.380;9.820;2022-12-07T01:13:58;42.40;;;22.37;;
31786;SDS011;18356;52.380;9.820;2022-12-07T01:16:26;49.73;;;23.30;;
31786;SDS011;18356;52.380;9.820;2022-12-07T01:18:54;45.70;;;21.97;;
31786;SDS011;18356;52.380;9.820;2022-12-07T01:21:25;43.73;;;22.37;;
31786;SDS011;18356;52.380;9.820;2022-12-07T01:23:52;43.53;;;22.50;;
31786;SDS011;18356;52.380;9.820;2022-12-07T01:26:22;45.07;;;22.73;;
31786;SDS011;18356;52.380;9.820;2022-12-07T01:28:48;47.60;;;23.33;;
31786;SDS011;18356;52.380;9.820;2022-12-07T01:31:15;43.97;;;23.27;;
31786;SDS011;18356;52.380;9.820;2022-12-07T01:33:43;48.00;;;25.10;;
31786;SDS011;18356;52.380;9.820;2022-12-07T01:38:38;46.20;;;24.10;;
31786;SDS011;18356;52.380;9.820;2022-12-07T01:41:04;44.50;;;24.00;;
31786;SDS011;18356;52.380;9.820;2022-12-07T01:43:31;47.13;;;25.43;;
31786;SDS011;18356;52.380;9.820;2022-12-07T01:45:58;50.07;;;24.93;;
31786;SDS011;18356;52.380;9.820;2022-12-07T01:48:28;48.93;;;25.40;;
31786;SDS011;18356;52.380;9.820;2022-12-07T01:50:56;50.37;;;25.03;;
31786;SDS011;18356;52.380;9.820;2022-12-07T01:53:25;47.00;;;24.20;;
31786;SDS011;18356;52.380;9.820;2022-12-07T01:55:52;43.93;;;24.27;;
31786;SDS011;18356;52.380;9.820;2022-12-07T01:58:19;46.40;;;23.53;;
31786;SDS011;18356;52.380;9.820;2022-12-07T02:00:45;45.47;;;22.97;;
31786;SDS011;18356;52.380;9.820;2022-12-07T02:03:14;49.00;;;23.43;;
31786;SDS011;18356;52.380;9.820;2022-12-07T02:05:42;44.67;;;22.33;;
31786;SDS011;18356;52.380;9.820;2022-12-07T02:08:09;48.77;;;23.77;;
31786;SDS011;18356;52.380;9.820;2022-12-07T02:10:35;44.27;;;22.40;;
31786;SDS011;18356;52.380;9.820;2022-12-07T02:13:02;44.30;;;24.27;;
31786;SDS011;18356;52.380;9.820;2022-12-07T02:18:09;47.57;;;22.80;;
31786;SDS011;18356;52.380;9.820;2022-12-07T02:20:42;46.03;;;22.60;;
31786;SDS011;18356;52.380;9.820;2022-12-07T02:25:54;43.50;;;22.63;;
31786;SDS011;18356;52.380;9.820;2022-12-07T02:28:36;41.03;;;20.93;;
31786;SDS011;18356;52.380;9.820;2022-12-07T02:31:10;41.50;;;21.27;;
31786;SDS011;18356;52.380;9.820;2022-12-07T02:33:41;43.50;;;23.00;;
31786;SDS011;18356;52.380;9.820;2022-12-07T02:36:30;41.47;;;22.23;;
31786;SDS011;18356;52.380;9.820;2022-12-07T02:39:00;45.23;;;22.10;;
31786;SDS011;18356;52.380;9.820;2022-12-07T02:41:37;43.97;;;22.30;;
31786;SDS011;18356;52.380;9.820;2022-12-07T02:44:10;39.63;;;21.70;;
31786;SDS011;18356;52.380;9.820;2022-12-07T02:46:40;45.03;;;22.60;;
31786;SDS011;18356;52.380;9.820;2022-12-07T02:49:07;44.83;;;22.40;;
31786;SDS011;18356;52.380;9.820;2022-12-07T02:51:34;46.07;;;22.60;;
31786;SDS011;18356;52.380;9.820;2022-12-07T02:54:08;44.37;;;21.30;;
31786;SDS011;18356;52.380;9.820;2022-12-07T02:56:48;41.37;;;20.10;;
31786;SDS011;18356;52.380;9.820;2022-12-07T03:01:44;45.70;;;21.70;;
31786;SDS011;18356;52.380;9.820;2022-12-07T03:06:49;41.33;;;22.50;;
31786;SDS011;18356;52.380;9.820;2022-12-07T03:09:21;37.27;;;19.47;;
31786;SDS011;18356;52.380;9.820;2022-12-07T03:12:00;40.63;;;20.27;;
31786;SDS011;18356;52.380;9.820;2022-12-07T03:14:30;39.63;;;19.50;;
31786;SDS011;18356;52.380;9.820;2022-12-07T03:17:12;35.23;;;19.03;;
31786;SDS011;18356;52.380;9.820;2022-12-07T03:19:40;36.10;;;19.00;;
31786;SDS011;18356;52.380;9.820;2022-12-07T03:22:09;36.00;;;17.70;;
31786;SDS011;18356;52.380;9.820;2022-12-07T03:24:39;41.97;;;19.00;;
31786;SDS011;18356;52.380;9.820;2022-12-07T03:27:18;39.70;;;18.67;;
31786;SDS011;18356;52.380;9.820;2022-12-07T03:29:47;37.90;;;18.50;;
31786;SDS011;18356;52.380;9.820;2022-12-07T03:32:19;40.00;;;18.27;;
31786;SDS011;18356;52.380;9.820;2022-12-07T03:37:18;34.13;;;16.37;;
31786;SDS011;18356;52.380;9.820;2022-12-07T03:42:16;26.77;;;15.23;;
31786;SDS011;18356;52.380;9.820;2022-12-07T03:44:42;32.23;;;14.80;;
31786;SDS011;18356;52.380;9.820;2022-12-07T03:49:45;27.43;;;14.63;;
31786;SDS011;18356;52.380;9.820;2022-12-07T03:52:26;25.93;;;13.60;;
31786;SDS011;18356;52.380;9.820;2022-12-07T03:57:19;25.23;;;12.63;;
31786;SDS011;18356;52.380;9.820;2022-12-07T03:59:46;26.17;;;12.63;;
31786;SDS011;18356;52.380;9.820;2022-12-07T04:02:13;30.13;;;12.77;;
31786;SDS011;18356;52.380;9.820;2022-12-07T04:04:39;30.03;;;12.80;;
31786;SDS011;18356;52.380;9.820;2022-12-07T04:07:05;26.77;;;12.13;;
31786;SDS011;18356;52.380;9.820;2022-12-07T04:09:31;27.63;;;12.73;;
31786;SDS011;18356;52.380;9.820;2022-12-07T04:11:57;27.57;;;13.50;;
31786;SDS011;18356;52.380;9.820;2022-12-07T04:14:23;28.17;;;13.23;;
31786;SDS011;18356;52.380;9.820;2022-12-07T04:19:16;24.73;;;12.10;;
31786;SDS011;18356;52.380;9.820;2022-12-07T04:21:42;30.50;;;12.53;;
31786;SDS011;18356;52.380;9.820;2022-12-07T04:24:08;27.63;;;13.10;;
31786;SDS011;18356;52.380;9.820;2022-12-07T04:26:35;30.00;;;13.23;;
31786;SDS011;18356;52.380;9.820;2022-12-07T04:29:01;26.37;;;13.60;;
31786;SDS011;18356;52.380;9.820;2022-12-07T04:31:27;30.20;;;13.33;;
31786;SDS011;18356;52.380;9.820;2022-12-07T04:33:53;27.60;;;11.90;;
31786;SDS011;18356;52.380;9.820;2022-12-07T04:36:19;26.73;;;12.47;;
31786;SDS011;18356;52.380;9.820;2022-12-07T04:38:45;27.17;;;12.37;;
31786;SDS011;18356;52.380;9.820;2022-12-07T04:41:12;27.20;;;12.43;;
31786;SDS011;18356;52.380;9.820;2022-12-07T04:43:38;33.40;;;14.03;;
31786;SDS011;18356;52.380;9.820;2022-12-07T04:46:04;28.50;;;13.97;;
31786;SDS011;18356;52.380;9.820;2022-12-07T04:48:30;31.53;;;13.07;;
31786;SDS011;18356;52.380;9.820;2022-12-07T04:50:56;32.23;;;14.27;;
31786;SDS011;18356;52.380;9.820;2022-12-07T04:53:22;29.20;;;13.10;;
31786;SDS011;18356;52.380;9.820;2022-12-07T04:55:48;30.50;;;13.93;;
31786;SDS011;18356;52.380;9.820;2022-12-07T04:58:14;27.30;;;13.70;;
31786;SDS011;18356;52.380;9.820;2022-12-07T05:00:40;30.43;;;13.93;;
31786;SDS011;18356;52.380;9.820;2022-12-07T05:03:06;31.67;;;13.70;;
31786;SDS011;18356;52.380;9.820;2022-12-07T05:05:32;28.00;;;12.60;;
31786;SDS011;18356;52.380;9.820;2022-12-07T05:07:58;25.10;;;12.67;;
31786;SDS011;18356;52.380;9.820;2022-12-07T05:10:24;27.37;;;12.70;;
31786;SDS011;18356;52.380;9.820;2022-12-07T05:12:50;30.77;;;12.70;;
31786;SDS011;18356;52.380;9.820;2022-12-07T05:15:16;25.87;;;12.20;;
31786;SDS011;18356;52.380;9.820;2022-12-07T05:17:43;27.10;;;12.97;;
31786;SDS011;18356;52.380;9.820;2022-12-07T05:20:09;32.23;;;12.33;;
31786;SDS011;18356;52.380;9.820;2022-12-07T05:22:35;27.77;;;12.23;;
31786;SDS011;18356;52.380;9.820;2022-12-07T05:25:01;34.07;;;13.07;;
31786;SDS011;18356;52.380;9.820;2022-12-07T05:27:27;25.27;;;11.40;;
31786;SDS011;18356;52.380;9.820;2022-12-07T05:29:53;26.43;;;11.17;;
31786;SDS011;18356;52.380;9.820;2022-12-07T05:32:19;25.10;;;11.87;;
31786;SDS011;18356;52.380;9.820;2022-12-07T05:34:45;29.40;;;12.57;;
31786;SDS011;18356;52.380;9.820;2022-12-07T05:37:11;26.63;;;11.70;;
31786;SDS011;18356;52.380;9.820;2022-12-07T05:39:37;27.87;;;11.37;;
31786;SDS011;18356;52.380;9.820;2022-12-07T05:42:05;28.13;;;11.97;;
31786;SDS011;18356;52.380;9.820;2022-12-07T05:44:38;28.20;;;12.27;;
31786;SDS011;18356;52.380;9.820;2022-12-07T05:47:04;22.13;;;11.10;;
31786;SDS011;18356;52.380;9.820;2022-12-07T05:49:30;25.27;;;11.43;;
31786;SDS011;18356;52.380;9.820;2022-12-07T05:51:56;34.87;;;11.37;;
31786;SDS011;18356;52.380;9.820;2022-12-07T05:54:22;26.70;;;11.40;;
31786;SDS011;18356;52.380;9.820;2022-12-07T05:56:48;27.43;;;10.90;;
31786;SDS011;18356;52.380;9.820;2022-12-07T05:59:15;28.93;;;11.77;;
31786;SDS011;18356;52.380;9.820;2022-12-07T06:04:16;22.83;;;10.00;;
31786;SDS011;18356;52.380;9.820;2022-12-07T06:06:43;27.57;;;11.30;;
31786;SDS011;18356;52.380;9.820;2022-12-07T06:09:09;25.57;;;9.90;;
31786;SDS011;18356;52.380;9.820;2022-12-07T06:11:35;22.67;;;10.47;;
31786;SDS011;18356;52.380;9.820;2022-12-07T06:14:20;23.67;;;10.07;;
31786;SDS011;18356;52.380;9.820;2022-12-07T06:16:46;22.47;;;8.90;;
31786;SDS011;18356;52.380;9.820;2022-12-07T06:19:12;27.20;;;10.40;;
31786;SDS011;18356;52.380;9.820;2022-12-07T06:21:38;18.33;;;9.17;;
31786;SDS011;18356;52.380;9.820;2022-12-07T06:24:04;20.60;;;9.60;;
31786;SDS011;18356;52.380;9.820;2022-12-07T06:26:30;25.17;;;8.97;;
31786;SDS011;18356;52.380;9.820;2022-12-07T06:28:56;22.50;;;8.87;;
31786;SDS011;18356;52.380;9.820;2022-12-07T06:31:22;22.50;;;8.83;;
31786;SDS011;18356;52.380;9.820;2022-12-07T06:33:48;21.20;;;8.90;;
31786;SDS011;18356;52.380;9.820;2022-12-07T06:36:14;27.67;;;8.47;;
31786;SDS011;18356;52.380;9.820;2022-12-07T06:38:40;23.57;;;8.47;;
31786;SDS011;18356;52.380;9.820;2022-12-07T06:41:06;24.40;;;9.00;;
31786;SDS011;18356;52.380;9.820;2022-12-07T06:43:32;17.00;;;7.40;;
31786;SDS011;18356;52.380;9.820;2022-12-07T06:45:58;17.70;;;7.23;;
31786;SDS011;18356;52.380;9.820;2022-12-07T06:48:24;17.57;;;7.13;;
31786;SDS011;18356;52.380;9.820;2022-12-07T06:50:50;24.07;;;7.73;;
31786;SDS011;18356;52.380;9.820;2022-12-07T06:53:16;21.93;;;7.33;;
31786;SDS011;18356;52.380;9.820;2022-12-07T06:55:42;15.43;;;6.57;;
31786;SDS011;18356;52.380;9.820;2022-12-07T06:58:08;15.30;;;6.43;;
31786;SDS011;18356;52.380;9.820;2022-12-07T07:00:34;15.90;;;6.63;;
31786;SDS011;18356;52.380;9.820;2022-12-07T07:03:01;17.00;;;6.30;;
31786;SDS011;18356;52.380;9.820;2022-12-07T07:05:27;17.90;;;6.23;;
31786;SDS011;18356;52.380;9.820;2022-12-07T07:07:53;15.13;;;6.10;;
31786;SDS011;18356;52.380;9.820;2022-12-07T07:10:19;16.13;;;6.43;;
31786;SDS011;18356;52.380;9.820;2022-12-07T07:12:44;18.00;;;5.83;;
31786;SDS011;18356;52.380;9.820;2022-12-07T07:15:10;18.40;;;6.13;;
31786;SDS011;18356;52.380;9.820;2022-12-07T07:17:37;15.07;;;5.10;;
31786;SDS011;18356;52.380;9.820;2022-12-07T07:20:03;16.60;;;5.27;;
31786;SDS011;18356;52.380;9.820;2022-12-07T07:22:29;15.83;;;5.30;;
31786;SDS011;18356;52.380;9.820;2022-12-07T07:24:55;16.77;;;5.03;;
31786;SDS011;18356;52.380;9.820;2022-12-07T07:27:21;15.37;;;5.37;;
31786;SDS011;18356;52.380;9.820;2022-12-07T07:29:47;13.20;;;4.93;;
31786;SDS011;18356;52.380;9.820;2022-12-07T07:32:13;28.80;;;6.67;;
31786;SDS011;18356;52.380;9.820;2022-12-07T07:34:39;15.03;;;5.33;;
31786;SDS011;18356;52.380;9.820;2022-12-07T07:37:05;14.80;;;4.67;;
31786;SDS011;18356;52.380;9.820;2022-12-07T07:39:31;15.37;;;5.10;;
31786;SDS011;18356;52.380;9.820;2022-12-07T07:41:57;11.70;;;4.50;;
31786;SDS011;18356;52.380;9.820;2022-12-07T07:44:23;14.70;;;4.90;;
31786;SDS011;18356;52.380;9.820;2022-12-07T07:46:49;13.60;;;4.77;;
31786;SDS011;18356;52.380;9.820;2022-12-07T07:49:15;11.57;;;4.73;;
31786;SDS011;18356;52.380;9.820;2022-12-07T07:51:41;12.03;;;4.20;;
31786;SDS011;18356;52.380;9.820;2022-12-07T07:54:07;12.97;;;4.67;;
31786;SDS011;18356;52.380;9.820;2022-12-07T07:56:33;23.13;;;3.90;;
31786;SDS011;18356;52.380;9.820;2022-12-07T07:58:59;13.97;;;4.00;;
31786;SDS011;18356;52.380;9.820;2022-12-07T08:01:25;19.93;;;4.23;;
31786;SDS011;18356;52.380;9.820;2022-12-07T08:03:51;13.27;;;3.70;;
31786;SDS011;18356;52.380;9.820;2022-12-07T08:06:17;15.63;;;4.00;;
31786;SDS011;18356;52.380;9.820;2022-12-07T08:08:43;10.17;;;3.07;;
31786;SDS011;18356;52.380;9.820;2022-12-07T08:11:09;11.50;;;3.63;;
31786;SDS011;18356;52.380;9.820;2022-12-07T08:13:35;10.40;;;3.27;;
31786;SDS011;18356;52.380;9.820;2022-12-07T08:16:06;10.80;;;2.77;;
31786;SDS011;18356;52.380;9.820;2022-12-07T08:18:36;7.30;;;2.73;;
31786;SDS011;18356;52.380;9.820;2022-12-07T08:21:03;12.00;;;3.13;;
31786;SDS011;18356;52.380;9.820;2022-12-07T08:23:29;11.10;;;2.67;;
31786;SDS011;18356;52.380;9.820;2022-12-07T08:25:59;14.20;;;2.87;;
31786;SDS011;18356;52.380;9.820;2022-12-07T08:28:25;13.57;;;2.70;;
31786;SDS011;18356;52.380;9.820;2022-12-07T08:30:51;7.33;;;2.57;;
31786;SDS011;18356;52.380;9.820;2022-12-07T08:33:17;12.40;;;2.80;;
31786;SDS011;18356;52.380;9.820;2022-12-07T08:35:44;15.27;;;3.10;;
31786;SDS011;18356;52.380;9.820;2022-12-07T08:38:10;6.63;;;2.70;;
31786;SDS011;18356;52.380;9.820;2022-12-07T08:40:36;9.17;;;2.90;;
31786;SDS011;18356;52.380;9.820;2022-12-07T08:43:02;8.07;;;2.50;;
31786;SDS011;18356;52.380;9.820;2022-12-07T08:45:28;9.37;;;2.40;;
31786;SDS011;18356;52.380;9.820;2022-12-07T08:47:58;7.93;;;2.67;;
31786;SDS011;18356;52.380;9.820;2022-12-07T08:50:26;10.87;;;2.47;;
31786;SDS011;18356;52.380;9.820;2022-12-07T08:52:53;8.53;;;2.10;;
31786;SDS011;18356;52.380;9.820;2022-12-07T08:55:20;10.33;;;2.20;;
31786;SDS011;18356;52.380;9.820;2022-12-07T08:57:46;11.67;;;2.57;;
31786;SDS011;18356;52.380;9.820;2022-12-07T09:00:13;7.73;;;2.23;;
31786;SDS011;18356;52.380;9.820;2022-12-07T09:02:39;6.20;;;1.83;;
31786;SDS011;18356;52.380;9.820;2022-12-07T09:05:05;11.07;;;2.23;;
31786;SDS011;18356;52.380;9.820;2022-12-07T09:07:32;7.93;;;2.00;;
31786;SDS011;18356;52.380;9.820;2022-12-07T09:09:58;11.13;;;2.50;;
31786;SDS011;18356;52.380;9.820;2022-12-07T09:12:24;10.60;;;2.50;;
31786;SDS011;18356;52.380;9.820;2022-12-07T09:14:50;11.47;;;2.20;;
31786;SDS011;18356;52.380;9.820;2022-12-07T09:17:16;7.83;;;2.57;;
31786;SDS011;18356;52.380;9.820;2022-12-07T09:19:42;14.03;;;2.50;;
31786;SDS011;18356;52.380;9.820;2022-12-07T09:22:08;7.03;;;1.97;;
31786;SDS011;18356;52.380;9.820;2022-12-07T09:24:34;9.50;;;2.13;;
31786;SDS011;18356;52.380;9.820;2022-12-07T09:27:00;9.10;;;2.30;;
31786;SDS011;18356;52.380;9.820;2022-12-07T09:29:26;9.67;;;2.00;;
31786;SDS011;18356;52.380;9.820;2022-12-07T09:31:52;9.30;;;1.80;;
31786;SDS011;18356;52.380;9.820;2022-12-07T09:34:18;6.80;;;1.90;;
31786;SDS011;18356;52.380;9.820;2022-12-07T09:36:45;12.90;;;2.23;;
31786;SDS011;18356;52.380;9.820;2022-12-07T09:39:11;9.73;;;2.07;;
31786;SDS011;18356;52.380;9.820;2022-12-07T09:41:38;6.13;;;1.80;;
31786;SDS011;18356;52.380;9.820;2022-12-07T09:44:06;8.50;;;1.87;;
31786;SDS011;18356;52.380;9.820;2022-12-07T09:46:34;8.63;;;1.73;;
31786;SDS011;18356;52.380;9.820;2022-12-07T09:49:01;8.47;;;1.90;;
31786;SDS011;18356;52.380;9.820;2022-12-07T09:51:28;7.93;;;1.50;;
31786;SDS011;18356;52.380;9.820;2022-12-07T09:53:54;6.47;;;1.50;;
31786;SDS011;18356;52.380;9.820;2022-12-07T09:56:22;11.27;;;1.93;;
31786;SDS011;18356;52.380;9.820;2022-12-07T09:58:48;5.93;;;1.20;;
31786;SDS011;18356;52.380;9.820;2022-12-07T10:01:16;8.67;;;1.50;;
31786;SDS011;18356;52.380;9.820;2022-12-07T10:03:45;8.80;;;1.90;;
31786;SDS011;18356;52.380;9.820;2022-12-07T10:06:13;4.97;;;1.27;;
31786;SDS011;18356;52.380;9.820;2022-12-07T10:08:39;9.40;;;1.70;;
31786;SDS011;18356;52.380;9.820;2022-12-07T10:11:08;6.97;;;1.53;;
31786;SDS011;18356;52.380;9.820;2022-12-07T10:16:01;9.13;;;1.83;;
31786;SDS011;18356;52.380;9.820;2022-12-07T10:18:29;6.70;;;1.43;;
31786;SDS011;18356;52.380;9.820;2022-12-07T10:23:32;8.13;;;1.30;;
31786;SDS011;18356;52.380;9.820;2022-12-07T10:25:58;8.67;;;1.70;;
31786;SDS011;18356;52.380;9.820;2022-12-07T10:28:27;7.43;;;1.33;;
31786;SDS011;18356;52.380;9.820;2022-12-07T10:30:59;7.77;;;1.53;;
31786;SDS011;18356;52.380;9.820;2022-12-07T10:35:57;6.37;;;1.40;;
31786;SDS011;18356;52.380;9.820;2022-12-07T10:38:25;7.37;;;1.57;;
31786;SDS011;18356;52.380;9.820;2022-12-07T10:41:13;5.00;;;1.50;;
31786;SDS011;18356;52.380;9.820;2022-12-07T10:43:41;10.50;;;1.60;;
31786;SDS011;18356;52.380;9.820;2022-12-07T10:46:21;8.37;;;1.23;;
31786;SDS011;18356;52.380;9.820;2022-12-07T10:54:36;10.63;;;1.80;;
31786;SDS011;18356;52.380;9.820;2022-12-07T11:02:25;9.53;;;2.30;;
31786;SDS011;18356;52.380;9.820;2022-12-07T11:04:55;9.80;;;1.83;;
31786;SDS011;18356;52.380;9.820;2022-12-07T11:15:26;8.13;;;1.63;;
31786;SDS011;18356;52.380;9.820;2022-12-07T11:25:49;9.60;;;1.63;;
31786;SDS011;18356;52.380;9.820;2022-12-07T11:30:51;8.63;;;1.23;;
31786;SDS011;18356;52.380;9.820;2022-12-07T11:38:47;7.20;;;0.80;;
31786;SDS011;18356;52.380;9.820;2022-12-07T11:41:15;6.23;;;1.00;;
31786;SDS011;18356;52.380;9.820;2022-12-07T11:46:19;6.13;;;1.20;;
31786;SDS011;18356;52.380;9.820;2022-12-07T11:48:49;5.40;;;1.20;;
31786;SDS011;18356;52.380;9.820;2022-12-07T11:51:18;7.23;;;1.43;;
31786;SDS011;18356;52.380;9.820;2022-12-07T11:53:51;7.33;;;1.50;;
31786;SDS011;18356;52.380;9.820;2022-12-07T11:56:19;7.90;;;1.47;;
31786;SDS011;18356;52.380;9.820;2022-12-07T12:04:14;5.73;;;1.67;;
31786;SDS011;18356;52.380;9.820;2022-12-07T12:06:44;9.30;;;1.70;;
31786;SDS011;18356;52.380;9.820;2022-12-07T12:11:44;8.60;;;2.10;;
31786;SDS011;18356;52.380;9.820;2022-12-07T12:21:54;9.07;;;2.20;;
31786;SDS011;18356;52.380;9.820;2022-12-07T12:24:25;6.73;;;2.40;;
31786;SDS011;18356;52.380;9.820;2022-12-07T12:27:15;9.17;;;2.10;;
31786;SDS011;18356;52.380;9.820;2022-12-07T12:29:41;6.40;;;2.27;;
31786;SDS011;18356;52.380;9.820;2022-12-07T12:32:17;7.97;;;2.30;;
31786;SDS011;18356;52.380;9.820;2022-12-07T12:47:53;13.53;;;3.30;;
31786;SDS011;18356;52.380;9.820;2022-12-07T12:50:26;14.67;;;2.83;;
31786;SDS011;18356;52.380;9.820;2022-12-07T12:52:54;15.93;;;2.90;;
31786;SDS011;18356;52.380;9.820;2022-12-07T12:55:22;7.97;;;2.47;;
31786;SDS011;18356;52.380;9.820;2022-12-07T12:58:25;14.53;;;2.60;;
31786;SDS011;18356;52.380;9.820;2022-12-07T13:00:38;11.43;;;2.40;;
31786;SDS011;18356;52.380;9.820;2022-12-07T13:03:04;7.63;;;2.40;;
31786;SDS011;18356;52.380;9.820;2022-12-07T13:05:31;12.73;;;2.67;;
31786;SDS011;18356;52.380;9.820;2022-12-07T13:20:52;9.80;;;1.83;;
31786;SDS011;18356;52.380;9.820;2022-12-07T13:23:25;8.40;;;2.10;;
31786;SDS011;18356;52.380;9.820;2022-12-07T13:26:13;9.60;;;2.23;;
31786;SDS011;18356;52.380;9.820;2022-12-07T13:28:47;10.00;;;2.17;;
31786;SDS011;18356;52.380;9.820;2022-12-07T13:33:40;11.87;;;2.40;;
31786;SDS011;18356;52.380;9.820;2022-12-07T13:36:14;10.73;;;2.60;;
31786;SDS011;18356;52.380;9.820;2022-12-07T13:38:48;11.93;;;2.40;;
31786;SDS011;18356;52.380;9.820;2022-12-07T13:41:15;17.50;;;2.43;;
31786;SDS011;18356;52.380;9.820;2022-12-07T13:43:45;14.30;;;2.30;;
31786;SDS011;18356;52.380;9.820;2022-12-07T13:46:12;9.87;;;2.73;;
31786;SDS011;18356;52.380;9.820;2022-12-07T13:48:48;11.13;;;2.30;;
31786;SDS011;18356;52.380;9.820;2022-12-07T13:51:22;17.50;;;2.50;;
31786;SDS011;18356;52.380;9.820;2022-12-07T13:53:49;12.37;;;2.27;;
31786;SDS011;18356;52.380;9.820;2022-12-07T13:56:16;10.93;;;2.13;;
31786;SDS011;18356;52.380;9.820;2022-12-07T13:58:42;15.67;;;2.50;;
31786;SDS011;18356;52.380;9.820;2022-12-07T14:01:08;11.33;;;2.30;;
31786;SDS011;18356;52.380;9.820;2022-12-07T14:03:35;9.07;;;2.40;;
31786;SDS011;18356;52.380;9.820;2022-12-07T14:08:46;17.63;;;3.00;;
31786;SDS011;18356;52.380;9.820;2022-12-07T14:11:14;11.70;;;2.20;;
31786;SDS011;18356;52.380;9.820;2022-12-07T14:16:22;14.03;;;2.80;;
31786;SDS011;18356;52.380;9.820;2022-12-07T14:18:50;15.67;;;2.93;;
31786;SDS011;18356;52.380;9.820;2022-12-07T14:21:16;13.13;;;2.77;;
31786;SDS011;18356;52.380;9.820;2022-12-07T14:23:44;11.60;;;2.43;;
31786;SDS011;18356;52.380;9.820;2022-12-07T14:26:14;10.90;;;2.30;;
31786;SDS011;18356;52.380;9.820;2022-12-07T14:28:41;9.60;;;2.40;;
31786;SDS011;18356;52.380;9.820;2022-12-07T14:31:10;14.57;;;2.43;;
31786;SDS011;18356;52.380;9.820;2022-12-07T14:33:36;12.27;;;1.80;;
31786;SDS011;18356;52.380;9.820;2022-12-07T14:36:02;16.07;;;2.13;;
31786;SDS011;18356;52.380;9.820;2022-12-07T14:38:28;15.13;;;2.50;;
31786;SDS011;18356;52.380;9.820;2022-12-07T14:40:55;9.63;;;2.00;;
31786;SDS011;18356;52.380;9.820;2022-12-07T14:43:41;14.93;;;2.20;;
31786;SDS011;18356;52.380;9.820;2022-12-07T14:46:07;9.30;;;2.20;;
31786;SDS011;18356;52.380;9.820;2022-12-07T14:48:34;13.23;;;2.43;;
31786;SDS011;18356;52.380;9.820;2022-12-07T14:51:00;13.63;;;2.63;;
31786;SDS011;18356;52.380;9.820;2022-12-07T14:53:30;11.97;;;2.53;;
31786;SDS011;18356;52.380;9.820;2022-12-07T14:55:57;14.57;;;2.40;;
31786;SDS011;18356;52.380;9.820;2022-12-07T14:58:23;9.87;;;2.00;;
31786;SDS011;18356;52.380;9.820;2022-12-07T15:00:49;12.60;;;2.27;;
31786;SDS011;18356;52.380;9.820;2022-12-07T15:03:15;12.17;;;1.70;;
31786;SDS011;18356;52.380;9.820;2022-12-07T15:05:41;14.37;;;2.40;;
31786;SDS011;18356;52.380;9.820;2022-12-07T15:08:11;7.77;;;2.30;;
31786;SDS011;18356;52.380;9.820;2022-12-07T15:10:38;14.73;;;3.23;;
31786;SDS011;18356;52.380;9.820;2022-12-07T15:13:05;13.00;;;2.77;;
31786;SDS011;18356;52.380;9.820;2022-12-07T15:15:51;8.83;;;2.30;;
31786;SDS011;18356;52.380;9.820;2022-12-07T15:18:18;9.97;;;2.70;;
31786;SDS011;18356;52.380;9.820;2022-12-07T15:20:44;11.53;;;2.40;;
31786;SDS011;18356;52.380;9.820;2022-12-07T15:23:10;21.77;;;2.97;;
31786;SDS011;18356;52.380;9.820;2022-12-07T15:25:37;11.20;;;2.97;;
31786;SDS011;18356;52.380;9.820;2022-12-07T15:28:05;8.83;;;2.10;;
31786;SDS011;18356;52.380;9.820;2022-12-07T15:30:31;11.23;;;2.80;;
31786;SDS011;18356;52.380;9.820;2022-12-07T15:32:57;10.47;;;3.17;;
31786;SDS011;18356;52.380;9.820;2022-12-07T15:35:23;14.47;;;4.27;;
31786;SDS011;18356;52.380;9.820;2022-12-07T15:37:49;12.60;;;3.93;;
31786;SDS011;18356;52.380;9.820;2022-12-07T15:40:15;17.17;;;3.40;;
31786;SDS011;18356;52.380;9.820;2022-12-07T15:42:41;15.10;;;4.90;;
31786;SDS011;18356;52.380;9.820;2022-12-07T15:45:07;17.83;;;5.00;;
31786;SDS011;18356;52.380;9.820;2022-12-07T15:47:37;23.20;;;8.97;;
31786;SDS011;18356;52.380;9.820;2022-12-07T15:50:04;23.20;;;6.43;;
31786;SDS011;18356;52.380;9.820;2022-12-07T15:52:31;20.40;;;5.80;;
31786;SDS011;18356;52.380;9.820;2022-12-07T15:54:57;24.23;;;9.47;;
31786;SDS011;18356;52.380;9.820;2022-12-07T15:57:25;13.00;;;4.30;;
31786;SDS011;18356;52.380;9.820;2022-12-07T15:59:51;15.53;;;3.90;;
31786;SDS011;18356;52.380;9.820;2022-12-07T16:02:17;10.43;;;3.70;;
31786;SDS011;18356;52.380;9.820;2022-12-07T16:04:43;13.73;;;3.13;;
31786;SDS011;18356;52.380;9.820;2022-12-07T16:07:09;17.80;;;4.20;;
31786;SDS011;18356;52.380;9.820;2022-12-07T16:09:36;15.93;;;5.23;;
31786;SDS011;18356;52.380;9.820;2022-12-07T16:12:02;14.17;;;4.27;;
31786;SDS011;18356;52.380;9.820;2022-12-07T16:14:28;12.23;;;3.50;;
31786;SDS011;18356;52.380;9.820;2022-12-07T16:16:57;9.67;;;3.80;;
31786;SDS011;18356;52.380;9.820;2022-12-07T16:19:23;11.10;;;3.80;;
31786;SDS011;18356;52.380;9.820;2022-12-07T16:21:49;15.20;;;4.40;;
31786;SDS011;18356;52.380;9.820;2022-12-07T16:24:15;16.80;;;4.33;;
31786;SDS011;18356;52.380;9.820;2022-12-07T16:26:41;12.17;;;3.63;;
31786;SDS011;18356;52.380;9.820;2022-12-07T16:29:09;10.60;;;3.70;;
31786;SDS011;18356;52.380;9.820;2022-12-07T16:31:36;13.53;;;3.90;;
31786;SDS011;18356;52.380;9.820;2022-12-07T16:34:02;18.07;;;4.80;;
31786;SDS011;18356;52.380;9.820;2022-12-07T16:36:27;17.13;;;5.10;;
31786;SDS011;18356;52.380;9.820;2022-12-07T16:38:54;12.33;;;4.00;;